createdAt,value
2022-12-14T00:04:05.867Z,0.60
2022-12-14T00:09:08.971Z,0.50
2022-12-14T00:14:12.188Z,0.60
2022-12-14T00:19:17.139Z,0.60
2022-12-14T00:24:20.372Z,0.50
2022-12-14T00:29:23.487Z,0.50
2022-12-14T00:34:27.990Z,0.50
2022-12-14T00:39:31.298Z,0.50
2022-12-14T00:44:34.519Z,0.60
2022-12-14T00:49:39.163Z,0.60
2022-12-14T00:54:42.371Z,0.60
2022-12-14T00:59:45.602Z,0.60
2022-12-14T01:04:50.064Z,0.60
2022-12-14T01:09:53.153Z,0.60
2022-12-14T01:14:56.458Z,0.60
2022-12-14T01:20:00.937Z,0.60
2022-12-14T01:25:04.733Z,0.70
2022-12-14T01:30:08.855Z,0.70
2022-12-14T01:35:13.376Z,0.70
2022-12-14T01:40:16.602Z,0.70
2022-12-14T01:45:22.257Z,0.70
2022-12-14T01:50:32.285Z,0.70
2022-12-14T01:55:37.712Z,0.70
2022-12-14T02:00:41.185Z,0.70
2022-12-14T02:05:49.735Z,0.70
2022-12-14T02:10:54.525Z,0.60
2022-12-14T02:15:57.683Z,0.60
2022-12-14T02:21:20.155Z,0.60
2022-12-14T02:26:59.067Z,0.60
2022-12-14T02:32:17.562Z,0.50
2022-12-14T02:37:26.697Z,0.50
2022-12-14T02:42:41.905Z,0.50
2022-12-14T02:47:54.638Z,0.50
2022-12-14T02:53:05.490Z,0.60
2022-12-14T02:58:14.206Z,0.50
2022-12-14T03:03:18.895Z,0.50
2022-12-14T03:08:24.156Z,0.50
2022-12-14T03:13:31.296Z,0.60
2022-12-14T03:18:40.311Z,0.60
2022-12-14T03:23:48.709Z,0.60
2022-12-14T03:28:55.646Z,0.70
2022-12-14T03:34:02.743Z,0.70
2022-12-14T03:39:11.690Z,0.90
2022-12-14T03:44:25.131Z,0.70
2022-12-14T03:49:49.022Z,0.70
2022-12-14T03:55:01.433Z,0.60
2022-12-14T04:00:09.268Z,0.60
2022-12-14T04:05:21.981Z,0.60
2022-12-14T04:10:47.451Z,0.70
2022-12-14T04:16:24.933Z,0.70
2022-12-14T04:21:37.675Z,0.70
2022-12-14T04:26:46.753Z,0.70
2022-12-14T04:31:54.230Z,0.70
2022-12-14T04:37:01.159Z,0.80
2022-12-14T04:42:08.164Z,0.80
2022-12-14T04:47:15.099Z,0.90
2022-12-14T04:52:26.275Z,0.90
2022-12-14T04:57:36.973Z,0.90
2022-12-14T05:02:53.773Z,1.00
2022-12-14T05:08:06.764Z,1.10
2022-12-14T05:13:14.544Z,1.10
2022-12-14T05:18:18.191Z,1.10
2022-12-14T05:23:22.670Z,1.10
2022-12-14T05:28:25.851Z,1.20
2022-12-14T05:33:29.401Z,1.10
2022-12-14T05:38:34.199Z,1.20
2022-12-14T05:43:37.262Z,1.20
2022-12-14T05:48:43.660Z,1.10
2022-12-14T05:53:50.543Z,1.20
2022-12-14T05:58:53.686Z,1.10
2022-12-14T06:03:56.869Z,1.10
2022-12-14T06:09:01.572Z,1.00
2022-12-14T06:14:05.330Z,1.00
2022-12-14T06:19:09.213Z,1.00
2022-12-14T06:24:15.019Z,1.00
2022-12-14T06:29:19.758Z,0.90
2022-12-14T06:34:28.174Z,0.90
2022-12-14T06:39:33.329Z,0.90
2022-12-14T06:44:37.604Z,0.90
2022-12-14T06:49:40.767Z,1.00
2022-12-14T06:54:45.236Z,1.00
2022-12-14T06:59:48.442Z,1.00
2022-12-14T07:04:51.615Z,1.00
2022-12-14T07:09:56.101Z,1.00
2022-12-14T07:14:59.727Z,0.90
2022-12-14T07:20:03.324Z,0.90
2022-12-14T07:25:08.841Z,0.90
2022-12-14T07:30:12.861Z,0.90
2022-12-14T07:35:16.852Z,1.00
2022-12-14T07:40:21.543Z,1.00
2022-12-14T07:45:25.819Z,1.10
2022-12-14T07:50:29.086Z,1.20
2022-12-14T07:55:36.203Z,1.20
2022-12-14T08:00:39.347Z,1.20
2022-12-14T08:05:42.446Z,1.30
2022-12-14T08:10:49.859Z,1.30
2022-12-14T08:15:52.993Z,1.30
2022-12-14T08:20:56.111Z,1.30
2022-12-14T08:26:02.061Z,1.30
2022-12-14T08:31:06.958Z,1.30
2022-12-14T08:36:13.095Z,1.30
2022-12-14T08:41:17.605Z,1.30
2022-12-14T08:46:21.743Z,1.20
2022-12-14T08:51:26.105Z,1.20
2022-12-14T08:56:30.572Z,1.20
2022-12-14T09:01:34.839Z,1.30
2022-12-14T09:06:39.965Z,1.30
2022-12-14T09:11:44.719Z,1.40
2022-12-14T09:16:47.868Z,1.40
2022-12-14T09:21:51.010Z,1.40
2022-12-14T09:26:55.871Z,1.40
2022-12-14T09:31:59.063Z,1.40
2022-12-14T09:37:04.658Z,1.50
2022-12-14T09:42:29.949Z,1.60
2022-12-14T09:47:38.697Z,1.70
2022-12-14T09:52:46.195Z,1.70
2022-12-14T09:57:56.562Z,1.70
2022-12-14T10:03:29.392Z,1.70
2022-12-14T10:08:40.260Z,1.70
2022-12-14T10:13:52.305Z,1.70
2022-12-14T10:19:17.159Z,1.80
2022-12-14T10:24:25.317Z,1.90
2022-12-14T10:29:34.344Z,2.00
2022-12-14T10:34:41.397Z,2.00
2022-12-14T10:39:52.471Z,2.00
2022-12-14T10:50:49.735Z,2.10
2022-12-14T10:55:57.661Z,2.20
2022-12-14T11:01:02.235Z,2.20
2022-12-14T11:06:12.064Z,2.30
2022-12-14T11:11:19.384Z,2.40
2022-12-14T11:16:36.591Z,2.40
2022-12-14T11:21:40.460Z,2.50
2022-12-14T11:26:45.012Z,2.50
2022-12-14T11:31:52.517Z,2.70
2022-12-14T11:36:55.590Z,2.60
2022-12-14T11:42:03.065Z,2.70
2022-12-14T11:47:13.612Z,2.90
2022-12-14T11:52:18.515Z,3.00
2022-12-14T11:57:27.545Z,2.90
2022-12-14T12:02:35.369Z,3.00
2022-12-14T12:07:41.040Z,3.00
2022-12-14T12:12:54.656Z,3.10
2022-12-14T12:18:06.253Z,3.00
2022-12-14T12:23:15.436Z,3.10
2022-12-14T12:28:25.617Z,3.00
2022-12-14T12:33:36.271Z,3.10
2022-12-14T12:38:57.688Z,3.20
2022-12-14T12:44:07.745Z,3.10
2022-12-14T12:49:15.862Z,3.10
2022-12-14T12:54:23.759Z,3.20
2022-12-14T12:59:36.162Z,3.20
2022-12-14T13:04:46.523Z,3.20
2022-12-14T13:10:05.027Z,3.30
2022-12-14T13:15:19.193Z,3.30
2022-12-14T13:20:28.170Z,3.30
2022-12-14T13:25:42.385Z,3.30
2022-12-14T13:31:02.598Z,3.40
2022-12-14T13:36:26.358Z,3.40
2022-12-14T13:41:38.614Z,3.50
2022-12-14T13:46:42.161Z,3.50
2022-12-14T13:51:50.736Z,3.50
2022-12-14T13:57:06.488Z,3.60
2022-12-14T14:02:40.707Z,3.60
2022-12-14T14:07:54.430Z,3.60
2022-12-14T14:12:57.620Z,3.60
2022-12-14T14:18:13.458Z,3.60
2022-12-14T14:23:53.140Z,3.50
2022-12-14T14:29:20.398Z,3.50
2022-12-14T14:34:37.597Z,3.60
2022-12-14T14:40:04.920Z,3.70
2022-12-14T14:45:08.880Z,3.60
2022-12-14T14:50:24.887Z,3.60
2022-12-14T14:55:59.909Z,3.50
2022-12-14T15:01:26.896Z,3.60
2022-12-14T15:06:32.791Z,3.50
2022-12-14T15:11:48.856Z,3.60
2022-12-14T15:16:52.089Z,3.60
2022-12-14T15:21:58.220Z,3.60
2022-12-14T15:27:11.087Z,3.60
2022-12-14T15:32:17.627Z,3.50
2022-12-14T15:37:28.948Z,3.60
2022-12-14T15:42:33.569Z,3.50
2022-12-14T15:47:36.819Z,3.50
2022-12-14T15:52:40.424Z,3.50
2022-12-14T15:57:44.945Z,3.60
2022-12-14T16:02:48.383Z,3.40
2022-12-14T16:07:55.552Z,3.40
2022-12-14T16:13:04.923Z,3.40
2022-12-14T16:18:12.747Z,3.50
2022-12-14T16:23:29.070Z,3.40
2022-12-14T16:28:35.842Z,3.40
2022-12-14T16:33:40.628Z,3.40
2022-12-14T16:38:56.701Z,3.50
2022-12-14T16:44:02.573Z,3.30
2022-12-14T16:49:30.187Z,3.30
2022-12-14T16:54:34.875Z,3.30
2022-12-14T16:59:43.345Z,3.30
2022-12-14T17:04:46.475Z,3.20
2022-12-14T17:09:49.598Z,3.30
2022-12-14T17:14:54.477Z,3.20
2022-12-14T17:19:57.675Z,3.30
2022-12-14T17:25:02.432Z,3.30
2022-12-14T17:30:08.765Z,3.40
2022-12-14T17:35:17.656Z,3.40
2022-12-14T17:40:20.804Z,3.50
2022-12-14T17:45:27.380Z,3.50
2022-12-14T17:50:31.040Z,3.50
2022-12-14T17:55:34.156Z,3.40
2022-12-14T18:00:56.759Z,3.40
2022-12-14T18:06:00.724Z,3.60
2022-12-14T18:11:13.295Z,3.50
2022-12-14T18:16:20.382Z,3.50
2022-12-14T18:21:26.003Z,3.80
2022-12-14T18:26:29.121Z,3.60
2022-12-14T18:31:37.454Z,3.70
2022-12-14T18:36:41.072Z,3.60
2022-12-14T18:41:44.307Z,3.60
2022-12-14T18:46:49.741Z,3.60
2022-12-14T18:51:52.862Z,3.60
2022-12-14T18:56:55.988Z,3.60
2022-12-14T19:02:00.571Z,3.50
2022-12-14T19:07:03.806Z,3.50
2022-12-14T19:12:07.463Z,3.40
2022-12-14T19:17:11.896Z,3.30
2022-12-14T19:22:15.121Z,3.30
2022-12-14T19:27:35.686Z,3.30
2022-12-14T19:32:42.685Z,3.20
2022-12-14T19:37:47.836Z,3.30
2022-12-14T19:42:51.244Z,3.30
2022-12-14T19:47:55.702Z,3.40
2022-12-14T19:52:58.807Z,3.50
2022-12-14T19:58:01.929Z,3.50
2022-12-14T20:03:06.496Z,3.70
2022-12-14T20:08:09.634Z,3.70
2022-12-14T20:13:15.283Z,3.80
2022-12-14T20:18:21.019Z,3.70
2022-12-14T20:23:24.112Z,3.70
2022-12-14T20:28:29.923Z,3.70
2022-12-14T20:33:35.359Z,3.70
2022-12-14T20:38:39.385Z,3.60
2022-12-14T20:43:45.209Z,3.60
2022-12-14T20:48:50.188Z,3.60
2022-12-14T20:53:53.341Z,3.60
2022-12-14T20:58:58.649Z,3.60
2022-12-14T21:04:03.928Z,3.60
2022-12-14T21:09:10.153Z,3.60
2022-12-14T21:14:14.688Z,3.60
2022-12-14T21:19:19.554Z,3.70
2022-12-14T21:29:47.526Z,3.80
2022-12-14T21:34:52.359Z,3.80
2022-12-14T21:39:56.008Z,3.90
2022-12-14T21:44:59.355Z,3.80
2022-12-14T21:50:03.926Z,3.80
2022-12-14T21:55:08.247Z,3.80
2022-12-14T22:00:12.708Z,3.80
2022-12-14T22:05:17.486Z,3.90
2022-12-14T22:10:24.894Z,3.80
2022-12-14T22:15:28.487Z,3.80
2022-12-14T22:20:32.967Z,3.80
2022-12-14T22:25:36.096Z,3.80
2022-12-14T22:30:39.445Z,3.80
2022-12-14T22:35:43.976Z,3.90
2022-12-14T22:40:47.229Z,3.90
2022-12-14T22:45:50.406Z,3.80
2022-12-14T22:50:58.722Z,3.80
2022-12-14T22:56:08.280Z,3.80
2022-12-14T23:01:11.690Z,3.80
2022-12-14T23:06:19.138Z,3.80
2022-12-14T23:11:39.488Z,3.80
2022-12-14T23:16:59.746Z,3.80
2022-12-14T23:22:21.896Z,3.80
2022-12-14T23:27:42.604Z,3.70
2022-12-14T23:33:03.751Z,3.70
2022-12-14T23:38:26.514Z,3.60
2022-12-14T23:43:46.873Z,3.50
2022-12-14T23:49:12.053Z,3.40
2022-12-14T23:54:37.548Z,3.40
2022-12-14T23:59:57.892Z,3.50
